createdAt,value
2023-01-26T00:01:22.068Z,92.45
2023-01-26T00:03:49.954Z,92.70
2023-01-26T00:06:18.759Z,92.47
2023-01-26T00:08:47.999Z,92.74
2023-01-26T00:11:18.128Z,92.61
2023-01-26T00:13:45.642Z,92.99
2023-01-26T00:16:14.895Z,92.50
2023-01-26T00:18:42.707Z,92.92
2023-01-26T00:21:13.999Z,92.63
2023-01-26T00:23:41.119Z,92.94
2023-01-26T00:26:10.215Z,92.80
2023-01-26T00:28:38.957Z,92.60
2023-01-26T00:31:08.428Z,92.69
2023-01-26T00:33:37.688Z,92.62
2023-01-26T00:36:05.313Z,92.33
2023-01-26T00:38:32.562Z,92.63
2023-01-26T00:40:59.495Z,92.62
2023-01-26T00:43:26.679Z,92.47
2023-01-26T00:45:53.579Z,92.94
2023-01-26T00:48:22.526Z,92.57
2023-01-26T00:50:52.486Z,92.57
2023-01-26T00:53:20.238Z,92.95
2023-01-26T00:55:47.090Z,93.21
2023-01-26T00:58:14.279Z,93.08
2023-01-26T01:00:41.264Z,92.54
2023-01-26T01:03:08.552Z,92.28
2023-01-26T01:05:35.939Z,92.90
2023-01-26T01:08:03.364Z,92.93
2023-01-26T01:10:30.341Z,93.04
2023-01-26T01:12:57.541Z,93.01
2023-01-26T01:15:25.100Z,92.83
2023-01-26T01:17:52.439Z,92.80
2023-01-26T01:20:19.838Z,92.93
2023-01-26T01:22:47.277Z,93.08
2023-01-26T01:25:14.303Z,92.85
2023-01-26T01:27:41.639Z,93.04
2023-01-26T01:30:09.463Z,93.25
2023-01-26T01:32:37.076Z,92.94
2023-01-26T01:35:04.225Z,93.16
2023-01-26T01:37:31.737Z,93.29
2023-01-26T01:39:58.573Z,92.74
2023-01-26T01:42:26.513Z,92.59
2023-01-26T01:45:38.728Z,93.02
2023-01-26T01:48:13.795Z,93.26
2023-01-26T01:50:41.083Z,93.50
2023-01-26T01:53:14.623Z,93.22
2023-01-26T01:55:42.227Z,93.01
2023-01-26T01:58:09.780Z,93.50
2023-01-26T02:00:36.720Z,93.51
2023-01-26T02:03:14.674Z,93.48
2023-01-26T02:05:44.805Z,93.37
2023-01-26T02:08:14.633Z,93.13
2023-01-26T02:10:43.706Z,93.70
2023-01-26T02:13:12.081Z,93.62
2023-01-26T02:15:42.127Z,93.48
2023-01-26T02:18:11.461Z,93.45
2023-01-26T02:20:46.995Z,93.65
2023-01-26T02:23:35.116Z,93.79
2023-01-26T02:26:15.530Z,93.53
2023-01-26T02:28:45.172Z,93.69
2023-01-26T02:31:13.309Z,93.84
2023-01-26T02:33:42.446Z,93.72
2023-01-26T02:36:18.595Z,93.71
2023-01-26T02:39:28.026Z,93.71
2023-01-26T02:42:14.021Z,93.91
2023-01-26T02:44:43.105Z,93.89
2023-01-26T02:47:17.738Z,93.63
2023-01-26T02:49:52.364Z,93.53
2023-01-26T02:52:26.434Z,93.59
2023-01-26T02:55:19.318Z,93.62
2023-01-26T02:57:46.836Z,93.50
2023-01-26T03:00:18.484Z,93.92
2023-01-26T03:02:45.830Z,94.09
2023-01-26T03:05:13.289Z,94.45
2023-01-26T03:07:40.905Z,94.27
2023-01-26T03:10:09.592Z,94.01
2023-01-26T03:12:37.324Z,93.96
2023-01-26T03:15:23.849Z,93.63
2023-01-26T03:17:51.815Z,93.78
2023-01-26T03:20:37.760Z,94.30
2023-01-26T03:23:23.296Z,94.36
2023-01-26T03:26:12.316Z,94.27
2023-01-26T03:28:39.362Z,94.18
2023-01-26T03:31:07.526Z,93.81
2023-01-26T03:33:34.514Z,94.25
2023-01-26T03:36:02.031Z,94.11
2023-01-26T03:38:30.119Z,94.22
2023-01-26T03:41:17.268Z,93.81
2023-01-26T03:44:02.825Z,94.13
2023-01-26T03:46:48.735Z,94.13
2023-01-26T03:49:34.393Z,94.30
2023-01-26T03:52:20.363Z,94.19
2023-01-26T03:55:07.237Z,94.42
2023-01-26T03:57:34.521Z,94.04
2023-01-26T04:00:01.437Z,94.11
2023-01-26T04:02:48.027Z,94.37
2023-01-26T04:05:33.913Z,94.44
2023-01-26T04:08:22.941Z,94.57
2023-01-26T04:10:55.663Z,94.03
2023-01-26T04:13:43.343Z,94.42
2023-01-26T04:16:35.242Z,94.05
2023-01-26T04:19:21.138Z,93.81
2023-01-26T04:21:48.040Z,93.87
2023-01-26T04:24:22.319Z,94.12
2023-01-26T04:26:53.640Z,94.24
2023-01-26T04:29:28.187Z,94.67
2023-01-26T04:31:55.580Z,93.96
2023-01-26T04:34:23.711Z,93.71
2023-01-26T04:36:50.959Z,93.77
2023-01-26T04:39:19.740Z,94.34
2023-01-26T04:41:50.547Z,94.31
2023-01-26T04:44:19.668Z,94.32
2023-01-26T04:46:48.870Z,94.08
2023-01-26T04:49:16.444Z,94.26
2023-01-26T04:51:43.283Z,94.40
2023-01-26T04:54:10.876Z,94.31
2023-01-26T04:56:41.520Z,94.66
2023-01-26T04:59:10.956Z,94.03
2023-01-26T05:01:41.511Z,94.05
2023-01-26T05:04:11.600Z,94.03
2023-01-26T05:06:42.174Z,93.84
2023-01-26T05:09:10.417Z,93.81
2023-01-26T05:11:38.853Z,93.92
2023-01-26T05:14:21.209Z,94.07
2023-01-26T05:16:59.339Z,94.18
2023-01-26T05:19:43.153Z,94.16
2023-01-26T05:22:28.665Z,94.39
2023-01-26T05:25:33.877Z,94.33
2023-01-26T05:28:07.649Z,94.05
2023-01-26T05:30:35.307Z,93.75
2023-01-26T05:33:04.740Z,94.32
2023-01-26T05:35:32.428Z,94.36
2023-01-26T05:37:59.479Z,94.44
2023-01-26T05:40:28.070Z,94.27
2023-01-26T05:42:55.352Z,94.17
2023-01-26T05:45:43.939Z,94.14
2023-01-26T05:48:12.329Z,94.28
2023-01-26T05:50:39.559Z,94.45
2023-01-26T05:53:19.711Z,94.63
2023-01-26T05:55:47.762Z,94.71
2023-01-26T05:58:14.910Z,94.66
2023-01-26T06:00:42.235Z,94.96
2023-01-26T06:03:15.763Z,94.82
2023-01-26T06:05:43.011Z,94.60
2023-01-26T06:08:22.022Z,94.63
2023-01-26T06:11:09.418Z,94.80
2023-01-26T06:13:45.959Z,95.07
2023-01-26T06:16:24.658Z,95.26
2023-01-26T06:18:51.621Z,95.02
2023-01-26T06:21:19.070Z,95.45
2023-01-26T06:23:45.985Z,95.90
2023-01-26T06:26:15.307Z,96.06
2023-01-26T06:28:44.393Z,95.79
2023-01-26T06:31:11.887Z,96.00
2023-01-26T06:33:40.000Z,96.45
2023-01-26T06:36:11.711Z,96.78
2023-01-26T06:38:40.149Z,96.57
2023-01-26T06:41:09.010Z,96.59
2023-01-26T06:43:36.869Z,96.58
2023-01-26T06:46:05.761Z,96.65
2023-01-26T06:48:35.143Z,95.75
2023-01-26T06:51:16.014Z,95.93
2023-01-26T06:53:48.461Z,96.06
2023-01-26T06:56:24.735Z,95.43
2023-01-26T06:59:11.113Z,95.23
2023-01-26T07:02:01.316Z,94.87
2023-01-26T07:04:28.269Z,95.02
2023-01-26T07:06:55.503Z,94.72
2023-01-26T07:09:22.411Z,94.53
2023-01-26T07:11:49.623Z,94.19
2023-01-26T07:14:16.498Z,93.81
2023-01-26T07:16:43.652Z,94.04
2023-01-26T07:19:10.639Z,93.47
2023-01-26T07:21:39.203Z,93.20
2023-01-26T07:24:06.777Z,93.62
2023-01-26T07:26:33.933Z,93.65
2023-01-26T07:29:00.804Z,94.28
2023-01-26T07:31:28.040Z,93.74
2023-01-26T07:33:55.036Z,93.89
2023-01-26T07:36:22.183Z,93.69
2023-01-26T07:38:49.114Z,93.29
2023-01-26T07:41:16.428Z,92.94
2023-01-26T07:43:43.364Z,92.47
2023-01-26T07:46:11.011Z,91.87
2023-01-26T07:48:38.439Z,92.20
2023-01-26T07:51:06.096Z,92.37
2023-01-26T07:53:37.666Z,91.46
2023-01-26T07:56:16.040Z,91.87
2023-01-26T07:58:43.135Z,91.41
2023-01-26T08:01:13.336Z,91.29
2023-01-26T08:03:41.569Z,90.96
2023-01-26T08:06:11.928Z,90.86
2023-01-26T08:08:41.114Z,90.37
2023-01-26T08:11:09.976Z,89.60
2023-01-26T08:13:37.408Z,88.62
2023-01-26T08:16:10.934Z,88.20
2023-01-26T08:18:43.120Z,87.16
2023-01-26T08:21:11.736Z,86.30
2023-01-26T08:23:39.096Z,85.30
2023-01-26T08:26:09.005Z,85.84
2023-01-26T08:28:36.822Z,85.34
2023-01-26T08:31:06.923Z,85.71
2023-01-26T08:33:34.720Z,86.03
2023-01-26T08:36:03.168Z,85.01
2023-01-26T08:38:31.955Z,85.11
2023-01-26T08:41:00.153Z,83.50
2023-01-26T08:43:27.789Z,84.23
2023-01-26T08:45:55.145Z,84.13
2023-01-26T08:48:22.250Z,84.43
2023-01-26T08:50:55.022Z,83.11
2023-01-26T08:53:23.369Z,82.79
2023-01-26T08:55:51.475Z,82.75
2023-01-26T08:58:20.452Z,81.74
2023-01-26T09:00:47.774Z,82.55
2023-01-26T09:03:15.221Z,82.45
2023-01-26T09:05:42.757Z,82.22
2023-01-26T09:08:10.287Z,81.95
2023-01-26T09:10:39.027Z,81.28
2023-01-26T09:13:06.226Z,81.62
2023-01-26T09:15:33.636Z,81.75
2023-01-26T09:18:01.179Z,82.18
2023-01-26T09:20:28.546Z,82.19
2023-01-26T09:22:55.446Z,82.28
2023-01-26T09:25:22.736Z,80.78
2023-01-26T09:27:49.606Z,80.78
2023-01-26T09:30:17.229Z,81.49
2023-01-26T09:32:44.160Z,81.28
2023-01-26T09:35:14.282Z,81.39
2023-01-26T09:37:43.806Z,80.76
2023-01-26T09:40:30.145Z,80.55
2023-01-26T09:43:22.294Z,81.12
2023-01-26T09:46:00.341Z,81.11
2023-01-26T09:48:42.361Z,80.31
2023-01-26T09:51:19.815Z,80.45
2023-01-26T09:53:57.485Z,80.38
2023-01-26T09:56:30.937Z,79.26
2023-01-26T09:59:03.888Z,79.28
2023-01-26T10:01:37.821Z,79.95
2023-01-26T10:04:16.107Z,79.71
2023-01-26T10:06:44.339Z,80.25
2023-01-26T10:09:26.721Z,78.98
2023-01-26T10:11:58.474Z,79.36
2023-01-26T10:14:30.608Z,79.67
2023-01-26T10:17:00.292Z,78.65
2023-01-26T10:19:39.445Z,78.80
2023-01-26T10:22:22.357Z,79.05
2023-01-26T10:24:50.996Z,78.45
2023-01-26T10:27:19.103Z,78.92
2023-01-26T10:29:46.118Z,79.06
2023-01-26T10:32:17.241Z,79.42
2023-01-26T10:34:46.628Z,78.28
2023-01-26T10:37:23.533Z,78.94
2023-01-26T10:40:01.881Z,79.52
2023-01-26T10:42:32.250Z,78.71
2023-01-26T10:45:02.218Z,77.87
2023-01-26T10:47:29.898Z,79.29
2023-01-26T10:50:20.075Z,77.95
2023-01-26T10:53:01.683Z,78.29
2023-01-26T10:55:30.233Z,78.88
2023-01-26T10:57:57.997Z,78.29
2023-01-26T11:00:33.691Z,77.98
2023-01-26T11:03:19.191Z,78.13
2023-01-26T11:05:48.235Z,77.56
2023-01-26T11:08:36.805Z,78.23
2023-01-26T11:11:06.891Z,78.35
2023-01-26T11:13:34.139Z,78.42
2023-01-26T11:16:24.656Z,78.59
2023-01-26T11:18:54.923Z,78.80
2023-01-26T11:21:37.137Z,78.68
2023-01-26T11:24:23.283Z,77.64
2023-01-26T11:27:10.561Z,77.56
2023-01-26T11:29:41.152Z,78.53
2023-01-26T11:32:38.348Z,76.91
2023-01-26T11:35:36.668Z,77.76
2023-01-26T11:38:09.709Z,78.15
2023-01-26T11:40:55.893Z,77.56
2023-01-26T11:43:37.726Z,78.50
2023-01-26T11:46:19.408Z,78.24
2023-01-26T11:49:23.901Z,76.90
2023-01-26T11:51:51.053Z,76.87
2023-01-26T11:54:30.114Z,76.98
2023-01-26T11:57:09.862Z,78.10
2023-01-26T11:59:42.582Z,78.43
2023-01-26T12:02:28.071Z,77.36
2023-01-26T12:04:58.904Z,77.38
2023-01-26T12:07:51.176Z,77.73
2023-01-26T12:10:24.260Z,78.06
2023-01-26T12:12:58.810Z,77.15
2023-01-26T12:15:33.111Z,77.33
2023-01-26T12:18:09.963Z,76.75
2023-01-26T12:20:45.672Z,77.44
2023-01-26T12:23:39.289Z,77.50
2023-01-26T12:26:13.494Z,76.76
2023-01-26T12:28:49.052Z,77.50
2023-01-26T12:31:55.205Z,78.02
2023-01-26T12:34:28.283Z,77.68
2023-01-26T12:37:28.805Z,77.92
2023-01-26T12:40:21.756Z,78.00
2023-01-26T12:43:21.250Z,78.84
2023-01-26T12:45:53.453Z,79.44
2023-01-26T12:48:25.818Z,78.92
2023-01-26T12:51:01.583Z,79.67
2023-01-26T12:53:38.752Z,78.95
2023-01-26T12:56:05.975Z,79.46
2023-01-26T12:58:37.540Z,79.51
2023-01-26T13:01:19.572Z,79.29
2023-01-26T13:03:57.270Z,79.02
2023-01-26T13:06:29.067Z,79.20
2023-01-26T13:09:00.614Z,78.90
2023-01-26T13:11:39.897Z,79.70
2023-01-26T13:14:47.369Z,79.65
2023-01-26T13:17:15.026Z,79.45
2023-01-26T13:19:42.150Z,79.40
2023-01-26T13:22:39.819Z,79.23
2023-01-26T13:25:28.324Z,80.23
2023-01-26T13:27:58.332Z,80.34
2023-01-26T13:30:31.379Z,79.57
2023-01-26T13:33:13.739Z,80.60
2023-01-26T13:35:41.246Z,80.20
2023-01-26T13:38:29.006Z,80.54
2023-01-26T13:40:56.165Z,80.57
2023-01-26T13:43:37.207Z,81.14
2023-01-26T13:46:10.463Z,81.00
2023-01-26T13:48:44.563Z,80.42
2023-01-26T13:51:24.539Z,80.08
2023-01-26T13:54:14.503Z,80.65
2023-01-26T13:56:43.260Z,80.33
2023-01-26T13:59:16.517Z,79.81
2023-01-26T14:01:46.440Z,79.57
2023-01-26T14:04:21.427Z,80.67
2023-01-26T14:07:15.700Z,80.93
2023-01-26T14:09:49.500Z,81.57
2023-01-26T14:12:23.896Z,81.88
2023-01-26T14:15:03.745Z,81.22
2023-01-26T14:17:33.422Z,81.00
2023-01-26T14:20:03.639Z,81.61
2023-01-26T14:22:30.752Z,81.52
2023-01-26T14:24:57.908Z,81.97
2023-01-26T14:27:27.543Z,80.98
2023-01-26T14:29:54.719Z,81.70
2023-01-26T14:32:25.512Z,81.69
2023-01-26T14:34:55.461Z,81.11
2023-01-26T14:37:22.973Z,81.03
2023-01-26T14:39:50.516Z,81.12
2023-01-26T14:42:20.674Z,81.76
2023-01-26T14:44:47.962Z,81.75
2023-01-26T14:47:25.372Z,81.93
2023-01-26T14:50:10.966Z,81.25
2023-01-26T14:52:42.970Z,81.84
2023-01-26T14:55:22.639Z,81.87
2023-01-26T14:57:52.036Z,81.70
2023-01-26T15:00:29.448Z,81.45
2023-01-26T15:02:58.940Z,81.47
2023-01-26T15:05:35.806Z,80.92
2023-01-26T15:08:21.224Z,81.50
2023-01-26T15:11:15.740Z,81.92
2023-01-26T15:13:45.068Z,81.58
2023-01-26T15:16:21.160Z,81.78
2023-01-26T15:18:59.475Z,80.77
2023-01-26T15:21:39.723Z,81.44
2023-01-26T15:24:13.772Z,81.32
2023-01-26T15:26:41.545Z,81.13
2023-01-26T15:29:21.160Z,81.32
2023-01-26T15:31:56.253Z,80.28
2023-01-26T15:34:35.026Z,80.59
2023-01-26T15:37:04.283Z,80.73
2023-01-26T15:39:31.380Z,80.37
2023-01-26T15:42:14.642Z,80.68
2023-01-26T15:44:42.408Z,81.25
2023-01-26T15:47:11.221Z,80.95
2023-01-26T15:49:38.765Z,81.04
2023-01-26T15:52:17.981Z,81.14
2023-01-26T15:54:45.417Z,80.92
2023-01-26T15:57:13.670Z,80.84
2023-01-26T15:59:40.969Z,81.12
2023-01-26T16:02:18.038Z,80.75
2023-01-26T16:04:45.200Z,81.04
2023-01-26T16:07:14.493Z,80.42
2023-01-26T16:09:42.088Z,81.00
2023-01-26T16:12:30.567Z,81.21
2023-01-26T16:14:58.564Z,81.36
2023-01-26T16:17:25.916Z,81.24
2023-01-26T16:19:52.800Z,81.16
2023-01-26T16:22:20.002Z,80.97
2023-01-26T16:24:47.048Z,81.49
2023-01-26T16:27:14.207Z,81.14
2023-01-26T16:29:41.270Z,80.85
2023-01-26T16:32:29.041Z,81.10
2023-01-26T16:34:56.340Z,80.71
2023-01-26T16:37:23.510Z,80.96
2023-01-26T16:39:50.475Z,80.99
2023-01-26T16:42:20.034Z,81.14
2023-01-26T16:44:47.742Z,81.33
2023-01-26T16:47:15.283Z,81.00
2023-01-26T16:49:42.282Z,81.66
2023-01-26T16:52:10.104Z,80.91
2023-01-26T16:54:37.280Z,81.32
2023-01-26T16:57:05.003Z,81.20
2023-01-26T16:59:32.043Z,80.56
2023-01-26T17:02:00.019Z,79.70
2023-01-26T17:04:26.995Z,80.27
2023-01-26T17:06:54.132Z,80.20
2023-01-26T17:09:23.224Z,80.51
2023-01-26T17:11:50.712Z,80.46
2023-01-26T17:14:17.738Z,81.11
2023-01-26T17:16:45.005Z,81.22
2023-01-26T17:19:11.952Z,81.74
2023-01-26T17:21:39.188Z,81.63
2023-01-26T17:24:07.240Z,81.86
2023-01-26T17:26:34.557Z,81.35
2023-01-26T17:29:01.443Z,81.38
2023-01-26T17:31:30.324Z,81.73
2023-01-26T17:33:57.808Z,81.68
2023-01-26T17:36:25.179Z,80.86
2023-01-26T17:38:52.640Z,80.62
2023-01-26T17:41:20.017Z,80.88
2023-01-26T17:43:47.939Z,79.88
2023-01-26T17:46:18.285Z,79.19
2023-01-26T17:48:46.467Z,78.90
2023-01-26T17:51:19.608Z,79.09
2023-01-26T17:53:49.795Z,78.54
2023-01-26T17:56:19.456Z,78.34
2023-01-26T17:58:52.139Z,78.15
2023-01-26T18:01:20.513Z,78.68
2023-01-26T18:03:47.910Z,78.93
2023-01-26T18:06:15.476Z,78.17
2023-01-26T18:08:42.494Z,77.85
2023-01-26T18:11:12.452Z,78.49
2023-01-26T18:13:39.750Z,78.04
2023-01-26T18:16:10.979Z,78.79
2023-01-26T18:18:38.010Z,78.37
2023-01-26T18:21:25.132Z,77.62
2023-01-26T18:23:54.330Z,78.21
2023-01-26T18:26:24.690Z,77.45
2023-01-26T18:28:52.230Z,77.76
2023-01-26T18:31:31.785Z,78.52
2023-01-26T18:34:00.270Z,78.49
2023-01-26T18:36:28.113Z,78.54
2023-01-26T18:39:01.455Z,79.01
2023-01-26T18:41:30.687Z,79.00
2023-01-26T18:43:58.525Z,79.77
2023-01-26T18:46:28.235Z,80.10
2023-01-26T18:49:00.540Z,80.20
2023-01-26T18:51:29.938Z,80.34
2023-01-26T18:53:57.701Z,80.57
2023-01-26T18:56:25.329Z,80.78
2023-01-26T18:58:53.930Z,80.38
2023-01-26T19:01:22.294Z,80.89
2023-01-26T19:03:55.381Z,81.22
2023-01-26T19:06:25.047Z,81.28
2023-01-26T19:08:59.410Z,80.62
2023-01-26T19:11:28.753Z,80.79
2023-01-26T19:13:56.086Z,81.13
2023-01-26T19:16:23.975Z,81.63
2023-01-26T19:18:52.004Z,80.75
2023-01-26T19:21:24.555Z,80.88
2023-01-26T19:23:53.433Z,80.92
2023-01-26T19:26:24.106Z,80.92
2023-01-26T19:28:51.629Z,80.72
2023-01-26T19:31:19.655Z,80.63
2023-01-26T19:33:54.464Z,80.09
2023-01-26T19:36:22.374Z,79.56
2023-01-26T19:38:49.606Z,79.62
2023-01-26T19:41:18.105Z,79.62
2023-01-26T19:43:45.004Z,78.40
2023-01-26T19:46:13.781Z,78.78
2023-01-26T19:48:41.134Z,78.34
2023-01-26T19:51:22.618Z,79.30
2023-01-26T19:53:51.906Z,79.09
2023-01-26T19:56:28.167Z,78.12
2023-01-26T19:58:57.641Z,78.79
2023-01-26T20:01:26.460Z,78.82
2023-01-26T20:03:58.662Z,78.18
2023-01-26T20:06:29.071Z,78.54
2023-01-26T20:08:56.100Z,77.79
2023-01-26T20:11:25.274Z,78.01
2023-01-26T20:13:55.123Z,78.00
2023-01-26T20:16:22.970Z,78.17
2023-01-26T20:18:50.369Z,78.04
2023-01-26T20:21:17.812Z,77.77
2023-01-26T20:23:54.042Z,77.44
2023-01-26T20:26:21.853Z,78.03
2023-01-26T20:28:49.075Z,77.89
2023-01-26T20:31:20.181Z,76.37
2023-01-26T20:33:49.095Z,77.27
2023-01-26T20:36:23.058Z,77.57
2023-01-26T20:38:50.105Z,77.40
2023-01-26T20:41:25.312Z,76.59
2023-01-26T20:44:00.228Z,77.62
2023-01-26T20:46:34.058Z,77.37
2023-01-26T20:49:01.329Z,77.23
2023-01-26T20:51:33.717Z,77.10
2023-01-26T20:54:02.053Z,77.62
2023-01-26T20:56:29.393Z,77.74
2023-01-26T20:58:56.356Z,77.73
2023-01-26T21:01:24.988Z,77.75
2023-01-26T21:03:52.609Z,77.84
2023-01-26T21:06:21.686Z,77.54
2023-01-26T21:08:54.882Z,76.69
2023-01-26T21:11:24.660Z,77.25
2023-01-26T21:13:52.113Z,76.07
2023-01-26T21:16:19.569Z,77.05
2023-01-26T21:18:46.716Z,77.23
2023-01-26T21:21:17.725Z,76.95
2023-01-26T21:23:45.925Z,76.02
2023-01-26T21:26:16.173Z,76.84
2023-01-26T21:28:43.340Z,76.99
2023-01-26T21:31:13.924Z,76.95
2023-01-26T21:33:43.797Z,77.01
2023-01-26T21:36:13.431Z,77.53
2023-01-26T21:38:42.946Z,76.12
2023-01-26T21:41:32.714Z,76.35
2023-01-26T21:44:01.975Z,75.15
2023-01-26T21:46:30.265Z,76.02
2023-01-26T21:48:57.186Z,76.40
2023-01-26T21:51:43.955Z,76.86
2023-01-26T21:54:11.632Z,76.93
2023-01-26T21:56:39.258Z,76.40
2023-01-26T21:59:11.342Z,76.10
2023-01-26T22:01:40.308Z,75.78
2023-01-26T22:04:09.728Z,76.20
2023-01-26T22:06:37.292Z,76.57
2023-01-26T22:09:05.832Z,76.36
2023-01-26T22:11:33.172Z,76.45
2023-01-26T22:14:00.618Z,76.13
2023-01-26T22:16:28.313Z,76.39
2023-01-26T22:18:55.236Z,77.06
2023-01-26T22:21:23.041Z,76.63
2023-01-26T22:23:50.635Z,77.14
2023-01-26T22:26:20.260Z,77.09
2023-01-26T22:28:52.715Z,76.41
2023-01-26T22:31:22.985Z,76.44
2023-01-26T22:33:50.405Z,76.23
2023-01-26T22:36:18.696Z,76.36
2023-01-26T22:38:45.937Z,76.86
2023-01-26T22:41:19.512Z,76.71
2023-01-26T22:43:50.217Z,77.07
2023-01-26T22:46:19.973Z,77.02
2023-01-26T22:48:47.056Z,77.40
2023-01-26T22:51:26.205Z,77.79
2023-01-26T22:53:54.612Z,77.90
2023-01-26T22:56:22.172Z,77.94
2023-01-26T22:58:59.489Z,77.66
2023-01-26T23:01:32.154Z,77.77
2023-01-26T23:04:00.484Z,78.04
2023-01-26T23:06:28.644Z,77.79
2023-01-26T23:08:55.614Z,77.53
2023-01-26T23:11:25.451Z,77.52
2023-01-26T23:13:53.786Z,77.70
2023-01-26T23:16:23.486Z,78.08
2023-01-26T23:18:52.335Z,78.88
2023-01-26T23:21:20.107Z,79.51
2023-01-26T23:23:47.191Z,78.86
2023-01-26T23:26:14.559Z,79.33
2023-01-26T23:28:43.250Z,78.97
2023-01-26T23:31:12.204Z,79.02
2023-01-26T23:33:39.995Z,79.58
2023-01-26T23:36:09.070Z,79.18
2023-01-26T23:38:36.101Z,79.29
2023-01-26T23:41:05.435Z,79.29
2023-01-26T23:43:32.818Z,79.24
2023-01-26T23:46:00.325Z,79.02
2023-01-26T23:48:27.399Z,79.23
2023-01-26T23:51:00.075Z,78.97
2023-01-26T23:53:30.906Z,78.91
2023-01-26T23:56:00.793Z,78.77
2023-01-26T23:58:27.764Z,78.74
